Drewsey, Oregon
Current Conditions -  °F | °C
As of 3:53 AM on Saturday 20 Dec 2014 (Local Time) from KBNO Reporting Station
Light Snow Light Snow  
Wind Chill: 27°   Ceiling: 1200
Heat Index: 33°   Visibility: 4mi
Dew Point: 32°   Wind: 7mph
Humidity: 96%   Direction: 160°SSE
Pressure: 29.98"   Gusts: NA
Location:  43.81°N, 118.38°W
Report Text: KBNO 201153Z AUTO 16006KT 4SM -SN BR FEW008 OVC012 01/00 A2998 RMK AO2 RAE47SNB47 SLP164 P0007 60012 70025 T00060000 10006 20000 58009
Loading
Personal Weather Stations






























Interactive Weather Map New forecast layout! Learn more

10-Day Weather Forecast

Advertisements
Track Severe Weather on mobile